Time;durP1;ratioP1;P1;durP2;ratioP2;P2;SDS_P1;SDS_P2;PMS_P1;PMS_P2;Temp;Humidity;BMP_temperature;BMP_pressure;BME280_temperature;BME280_humidity;BME280_pressure;Samples;Min_cycle;Max_cycle;Signal;HPM_P1;HPM_P2
2023/07/25 00:00:26;;;;;;;2.00;1.90;;;22.90;55.80;;;;;;4997435;28;20232;-77
2023/07/25 00:02:54;;;;;;;2.30;2.10;;;22.90;55.80;;;;;;4981738;28;20235;-77
2023/07/25 00:05:20;;;;;;;2.28;2.08;;;22.90;55.90;;;;;;4996928;28;20201;-77
2023/07/25 00:07:47;;;;;;;2.25;1.98;;;22.90;55.80;;;;;;4997369;28;20251;-77
2023/07/25 00:10:15;;;;;;;3.00;2.22;;;22.80;55.80;;;;;;4997320;28;20212;-77
2023/07/25 00:12:42;;;;;;;3.45;2.03;;;22.80;55.80;;;;;;4997215;28;20802;-77
2023/07/25 00:15:11;;;;;;;2.35;2.15;;;22.80;55.80;;;;;;4996570;28;20192;-77
2023/07/25 00:17:38;;;;;;;1.98;1.88;;;22.80;55.90;;;;;;5014699;28;20272;-77
2023/07/25 00:20:06;;;;;;;3.65;2.10;;;22.80;55.90;;;;;;4996333;28;20220;-77
2023/07/25 00:22:34;;;;;;;3.15;2.40;;;22.80;56.00;;;;;;4996720;28;20255;-77
2023/07/25 00:25:01;;;;;;;2.33;2.13;;;22.70;55.90;;;;;;4996663;28;20300;-77
2023/07/25 00:27:28;;;;;;;2.55;1.92;;;22.80;56.00;;;;;;4996477;28;20188;-77
2023/07/25 00:29:55;;;;;;;2.40;2.10;;;22.70;55.90;;;;;;4996410;28;20207;-77
2023/07/25 00:32:23;;;;;;;2.20;2.00;;;22.70;56.00;;;;;;4996361;28;20216;-77
2023/07/25 00:34:51;;;;;;;3.50;2.10;;;22.70;56.60;;;;;;4996180;28;20216;-77
2023/07/25 00:37:18;;;;;;;2.20;2.00;;;22.70;56.10;;;;;;4996523;28;20598;-77
2023/07/25 00:39:45;;;;;;;3.35;2.05;;;22.70;56.10;;;;;;4996130;28;20279;-77
2023/07/25 00:42:12;;;;;;;2.25;2.00;;;22.70;56.10;;;;;;4996763;28;20197;-77
2023/07/25 00:44:40;;;;;;;2.25;2.05;;;22.70;56.10;;;;;;4997219;28;20201;-77
2023/07/25 00:47:08;;;;;;;2.50;2.15;;;22.70;56.20;;;;;;4996516;28;20227;-77
2023/07/25 00:49:36;;;;;;;3.17;2.38;;;22.70;56.10;;;;;;4996046;28;20243;-77
2023/07/25 00:52:04;;;;;;;2.42;2.15;;;22.70;56.20;;;;;;4996300;28;20244;-77
2023/07/25 00:54:31;;;;;;;2.45;2.17;;;22.70;56.20;;;;;;4996361;28;20201;-77
2023/07/25 00:56:59;;;;;;;2.30;2.10;;;22.60;56.20;;;;;;4980708;28;20200;-77
2023/07/25 00:59:25;;;;;;;2.40;2.10;;;22.70;56.30;;;;;;5013919;28;20211;-77
2023/07/25 01:01:53;;;;;;;4.15;2.22;;;22.60;56.20;;;;;;5013654;28;20303;-77
2023/07/25 01:04:20;;;;;;;2.42;2.08;;;22.60;56.20;;;;;;4996302;28;20212;-77
2023/07/25 01:06:48;;;;;;;2.70;2.00;;;22.60;56.20;;;;;;4996247;28;20231;-77
2023/07/25 01:09:15;;;;;;;2.30;2.10;;;22.60;56.30;;;;;;4996209;28;20201;-77
2023/07/25 01:11:42;;;;;;;3.83;2.30;;;22.60;56.30;;;;;;4995964;28;20216;-77
2023/07/25 01:14:10;;;;;;;2.95;2.30;;;22.60;56.20;;;;;;4996083;28;20259;-77
2023/07/25 01:16:36;;;;;;;2.58;2.38;;;22.60;56.30;;;;;;4996322;28;20559;-77
2023/07/25 01:19:04;;;;;;;2.22;1.98;;;22.60;56.30;;;;;;4996802;28;20197;-77
2023/07/25 01:21:31;;;;;;;2.85;2.10;;;22.60;56.30;;;;;;4996206;28;20215;-77
2023/07/25 01:24:01;;;;;;;2.53;2.15;;;22.60;56.30;;;;;;4997340;28;20287;-77
2023/07/25 01:26:29;;;;;;;3.03;2.13;;;22.60;56.30;;;;;;4996451;28;20200;-77
2023/07/25 01:28:56;;;;;;;2.30;2.10;;;22.60;56.30;;;;;;4996304;28;20197;-77
2023/07/25 01:31:23;;;;;;;3.42;2.38;;;22.60;56.30;;;;;;4996285;28;20324;-77
2023/07/25 01:33:50;;;;;;;2.20;2.00;;;22.60;56.40;;;;;;5012423;28;20221;-77
2023/07/25 01:36:17;;;;;;;2.50;2.30;;;22.50;56.30;;;;;;5020280;28;20196;-77
2023/07/25 01:38:44;;;;;;;2.75;2.20;;;22.50;56.30;;;;;;4996294;28;20256;-77
2023/07/25 01:41:13;;;;;;;3.47;2.20;;;22.50;56.30;;;;;;4979947;28;20213;-77
2023/07/25 01:43:40;;;;;;;3.20;2.13;;;22.50;56.30;;;;;;4995986;28;20221;-77
2023/07/25 01:46:07;;;;;;;2.20;2.00;;;22.50;56.30;;;;;;4996203;28;20288;-77
2023/07/25 01:48:35;;;;;;;2.90;2.10;;;22.50;56.30;;;;;;4995903;28;20268;-77
2023/07/25 01:51:02;;;;;;;2.33;2.13;;;22.50;56.30;;;;;;4995936;28;20209;-76
2023/07/25 01:53:30;;;;;;;2.00;1.80;;;22.50;56.30;;;;;;5013344;28;20259;-76
2023/07/25 01:55:57;;;;;;;4.32;2.22;;;22.50;56.30;;;;;;4999375;28;20667;-77
2023/07/25 01:58:26;;;;;;;2.58;2.38;;;22.50;56.30;;;;;;4984276;28;20279;-77
2023/07/25 02:00:57;;;;;;;2.20;2.00;;;22.50;56.50;;;;;;5002176;28;20378;-77
2023/07/25 02:03:24;;;;;;;2.20;1.95;;;22.50;56.30;;;;;;5012336;28;20270;-77
2023/07/25 02:05:51;;;;;;;2.10;1.90;;;22.40;56.30;;;;;;5009074;28;20205;-77
2023/07/25 02:08:18;;;;;;;2.80;2.00;;;22.50;56.40;;;;;;4999112;28;20227;-77
2023/07/25 02:10:45;;;;;;;2.55;2.10;;;22.50;56.30;;;;;;4983120;28;20221;-77
2023/07/25 02:13:12;;;;;;;2.45;2.17;;;22.50;56.40;;;;;;4998948;28;20209;-77
2023/07/25 02:15:40;;;;;;;2.38;2.17;;;22.40;56.40;;;;;;4998793;28;20223;-77
2023/07/25 02:18:07;;;;;;;2.38;2.17;;;22.40;56.40;;;;;;4998925;28;20548;-77
2023/07/25 02:20:34;;;;;;;2.28;2.08;;;22.40;56.40;;;;;;4999112;28;20247;-77
2023/07/25 02:23:02;;;;;;;2.42;2.22;;;22.40;56.40;;;;;;4998833;28;20196;-77
2023/07/25 02:25:29;;;;;;;2.38;2.08;;;22.40;56.40;;;;;;4998776;28;20207;-77
2023/07/25 02:27:56;;;;;;;2.17;1.98;;;22.40;56.40;;;;;;4982569;28;20567;-77
2023/07/25 02:30:23;;;;;;;2.28;2.08;;;22.40;56.40;;;;;;4998904;28;20240;-77
2023/07/25 02:32:52;;;;;;;2.15;2.05;;;22.40;56.40;;;;;;4998272;28;20284;-77
2023/07/25 02:35:19;;;;;;;2.35;2.15;;;22.40;56.40;;;;;;4998560;28;20197;-77
2023/07/25 02:37:46;;;;;;;2.45;2.20;;;22.40;56.50;;;;;;4998382;28;20200;-77
2023/07/25 02:40:13;;;;;;;2.70;2.25;;;22.40;56.50;;;;;;4998499;28;20221;-77
2023/07/25 02:42:41;;;;;;;2.20;2.00;;;22.40;57.10;;;;;;4982070;28;20203;-77
2023/07/25 02:45:08;;;;;;;2.42;2.03;;;22.40;56.40;;;;;;4998693;28;20235;-77
2023/07/25 02:47:35;;;;;;;2.40;2.20;;;22.30;56.30;;;;;;4998431;28;20651;-77
2023/07/25 02:50:03;;;;;;;2.58;2.08;;;22.40;56.50;;;;;;4981938;28;20197;-77
2023/07/25 02:52:30;;;;;;;2.92;1.90;;;22.30;56.40;;;;;;4999219;28;20220;-77
2023/07/25 02:54:57;;;;;;;2.33;2.13;;;22.30;56.40;;;;;;4998019;28;20213;-77
2023/07/25 02:57:24;;;;;;;2.50;2.30;;;22.30;56.40;;;;;;4982112;28;20204;-77
2023/07/25 02:59:51;;;;;;;2.78;2.25;;;22.30;56.40;;;;;;4998307;28;20259;-77
2023/07/25 03:02:18;;;;;;;2.53;2.10;;;22.30;56.40;;;;;;4998140;28;20196;-77
2023/07/25 03:04:45;;;;;;;2.42;2.10;;;22.30;56.40;;;;;;4997656;28;20204;-77
2023/07/25 03:07:14;;;;;;;2.33;2.13;;;22.30;56.40;;;;;;4997103;28;20196;-77
2023/07/25 03:09:41;;;;;;;2.42;2.22;;;22.30;56.50;;;;;;4997844;28;20207;-77
2023/07/25 03:12:08;;;;;;;2.15;1.98;;;22.30;56.60;;;;;;4997791;28;20217;-78
2023/07/25 03:14:36;;;;;;;3.30;2.42;;;22.30;56.40;;;;;;4997990;28;20213;-78
2023/07/25 03:17:03;;;;;;;2.45;2.25;;;22.30;56.40;;;;;;4982335;28;20207;-78
2023/07/25 03:19:30;;;;;;;3.03;1.83;;;22.30;56.60;;;;;;5000991;28;20200;-77
2023/07/25 03:21:57;;;;;;;2.28;2.08;;;22.40;56.70;;;;;;4999619;28;20220;-77
2023/07/25 03:24:25;;;;;;;3.05;2.30;;;22.40;56.50;;;;;;4997970;28;20211;-77
2023/07/25 03:26:52;;;;;;;2.10;1.98;;;22.50;56.50;;;;;;4997673;28;20220;-78
2023/07/25 03:29:20;;;;;;;3.13;2.17;;;22.60;56.20;;;;;;4998322;28;20295;-78
2023/07/25 03:31:46;;;;;;;3.60;2.30;;;22.70;56.00;;;;;;4998216;28;20212;-78
2023/07/25 03:34:14;;;;;;;2.63;2.08;;;22.70;56.00;;;;;;4997567;28;20634;-78
2023/07/25 03:36:41;;;;;;;2.58;2.15;;;22.80;55.90;;;;;;4981934;28;20207;-78
2023/07/25 03:39:08;;;;;;;2.30;2.10;;;22.70;55.60;;;;;;4998331;28;20227;-78
2023/07/25 03:41:36;;;;;;;3.22;2.50;;;22.80;55.70;;;;;;5000399;28;20547;-78
2023/07/25 03:44:04;;;;;;;2.53;2.33;;;22.90;55.70;;;;;;4998517;28;20689;-77
2023/07/25 03:46:31;;;;;;;3.03;2.20;;;22.90;55.60;;;;;;4998033;28;20674;-78
2023/07/25 03:48:59;;;;;;;2.40;2.20;;;22.90;55.50;;;;;;4997763;28;20204;-78
2023/07/25 03:51:26;;;;;;;2.15;2.00;;;22.90;55.60;;;;;;4981962;28;20255;-77
2023/07/25 03:53:53;;;;;;;2.58;2.38;;;22.90;55.70;;;;;;4997723;28;20643;-77
2023/07/25 03:56:19;;;;;;;2.42;2.22;;;22.90;55.80;;;;;;4998809;28;20204;-77
2023/07/25 03:58:48;;;;;;;2.60;2.40;;;22.80;55.70;;;;;;5017110;28;20230;-77
2023/07/25 04:01:15;;;;;;;2.20;1.98;;;22.80;55.90;;;;;;5018039;28;20216;-77
2023/07/25 04:03:42;;;;;;;2.35;2.15;;;22.80;56.00;;;;;;5002625;28;20188;-77
2023/07/25 04:06:09;;;;;;;2.33;2.10;;;23.00;55.90;;;;;;4998439;28;20200;-77
2023/07/25 04:08:36;;;;;;;2.35;2.10;;;23.00;55.70;;;;;;4997463;28;20209;-77
2023/07/25 04:11:03;;;;;;;2.45;2.25;;;23.00;55.50;;;;;;4997398;28;20224;-77
2023/07/25 04:13:30;;;;;;;2.72;2.53;;;23.00;55.50;;;;;;4997270;28;20221;-77
2023/07/25 04:15:58;;;;;;;3.13;2.20;;;23.00;55.40;;;;;;4998427;28;20247;-77
2023/07/25 04:18:25;;;;;;;3.65;2.38;;;23.10;55.50;;;;;;4996769;28;20211;-77
2023/07/25 04:20:52;;;;;;;2.90;2.55;;;23.00;55.40;;;;;;4981337;28;20220;-77
2023/07/25 04:23:21;;;;;;;2.45;2.25;;;23.10;55.60;;;;;;4981279;28;20244;-77
2023/07/25 04:25:48;;;;;;;3.03;2.40;;;23.00;55.50;;;;;;4981456;28;20204;-77
2023/07/25 04:28:16;;;;;;;2.22;2.03;;;23.00;55.60;;;;;;4997199;28;20207;-77
2023/07/25 04:30:43;;;;;;;2.30;2.10;;;23.00;55.50;;;;;;4997137;28;20240;-77
2023/07/25 04:33:11;;;;;;;2.45;2.25;;;23.00;55.50;;;;;;4996978;28;20205;-77
2023/07/25 04:35:38;;;;;;;2.63;2.42;;;23.00;55.60;;;;;;4996910;28;20278;-77
2023/07/25 04:38:05;;;;;;;2.55;2.17;;;23.10;55.70;;;;;;4996746;28;20201;-77
2023/07/25 04:40:32;;;;;;;2.80;2.22;;;23.00;55.70;;;;;;5017978;28;20271;-77
2023/07/25 04:42:59;;;;;;;2.53;2.33;;;23.00;55.70;;;;;;5020074;28;20181;-77
2023/07/25 04:45:26;;;;;;;2.35;2.13;;;23.00;55.90;;;;;;5017301;28;20184;-77
2023/07/25 04:47:53;;;;;;;2.40;2.20;;;22.90;55.90;;;;;;5014894;28;20191;-76
2023/07/25 04:50:21;;;;;;;2.80;2.30;;;22.90;56.00;;;;;;4996697;28;20224;-76
2023/07/25 04:52:48;;;;;;;2.55;2.35;;;22.90;56.20;;;;;;4996332;28;20197;-77
2023/07/25 04:55:15;;;;;;;2.38;2.17;;;22.80;56.20;;;;;;4981309;28;20290;-77
2023/07/25 04:57:42;;;;;;;2.70;2.50;;;22.80;56.40;;;;;;4997124;28;20201;-77
2023/07/25 05:00:10;;;;;;;2.50;2.30;;;22.80;56.40;;;;;;4996533;28;20232;-77
2023/07/25 05:02:37;;;;;;;3.03;2.30;;;22.80;56.40;;;;;;4996594;28;20192;-77
2023/07/25 05:05:05;;;;;;;2.97;2.25;;;22.90;56.50;;;;;;4996564;28;20567;-77
2023/07/25 05:07:33;;;;;;;2.50;2.22;;;22.80;56.50;;;;;;4997096;28;20228;-77
2023/07/25 05:10:00;;;;;;;2.47;2.28;;;22.80;56.60;;;;;;4996717;28;20204;-77
2023/07/25 05:12:27;;;;;;;2.50;2.30;;;22.80;56.50;;;;;;4996463;28;20201;-77
2023/07/25 05:14:54;;;;;;;2.65;2.45;;;22.80;57.10;;;;;;4996934;28;20224;-77
2023/07/25 05:17:21;;;;;;;3.45;2.55;;;22.80;56.60;;;;;;4996258;28;20201;-77
2023/07/25 05:19:48;;;;;;;2.40;2.20;;;22.80;56.60;;;;;;4996282;28;20208;-77
2023/07/25 05:22:15;;;;;;;2.83;2.35;;;22.80;56.60;;;;;;4980414;28;20228;-77
2023/07/25 05:24:43;;;;;;;2.75;2.40;;;22.80;56.70;;;;;;4979960;28;20651;-77
2023/07/25 05:27:10;;;;;;;3.40;2.55;;;22.80;56.70;;;;;;4996895;28;20201;-77
2023/07/25 05:29:37;;;;;;;3.88;2.60;;;22.80;56.80;;;;;;4997796;28;20256;-77
2023/07/25 05:32:05;;;;;;;2.45;2.25;;;22.90;56.80;;;;;;4999652;28;20706;-77
2023/07/25 05:34:32;;;;;;;3.40;2.50;;;22.80;56.80;;;;;;4999714;28;20225;-77
2023/07/25 05:37:00;;;;;;;2.22;2.10;;;22.80;56.80;;;;;;5000030;28;20197;-77
2023/07/25 05:39:27;;;;;;;2.67;2.28;;;22.80;56.80;;;;;;4999578;28;20202;-77
2023/07/25 05:41:55;;;;;;;2.28;2.05;;;22.80;56.80;;;;;;4999717;28;20231;-77
2023/07/25 05:44:22;;;;;;;2.30;2.10;;;22.80;56.80;;;;;;4999584;28;20208;-77
2023/07/25 05:46:49;;;;;;;2.60;2.20;;;22.80;56.80;;;;;;4999686;28;20205;-77
2023/07/25 05:49:16;;;;;;;2.58;2.17;;;22.80;56.80;;;;;;5000195;28;20200;-77
2023/07/25 05:51:43;;;;;;;2.85;2.33;;;22.80;56.80;;;;;;4999795;28;20216;-77
2023/07/25 05:54:10;;;;;;;3.20;2.45;;;22.70;56.70;;;;;;4999385;28;20216;-77
2023/07/25 05:56:37;;;;;;;2.85;2.58;;;22.80;56.80;;;;;;4999977;28;20678;-77
2023/07/25 05:59:05;;;;;;;3.78;2.50;;;22.80;56.80;;;;;;4999455;28;20216;-77
2023/07/25 06:01:32;;;;;;;2.60;2.40;;;22.80;57.00;;;;;;4999129;28;20221;-78
2023/07/25 06:03:59;;;;;;;2.63;2.42;;;22.80;57.20;;;;;;4999340;28;20200;-78
2023/07/25 06:06:27;;;;;;;2.47;2.28;;;22.80;57.30;;;;;;4998984;28;20209;-78
2023/07/25 06:08:54;;;;;;;3.17;2.50;;;22.80;57.40;;;;;;4999579;28;20212;-78
2023/07/25 06:11:23;;;;;;;3.03;2.30;;;22.80;57.30;;;;;;4999720;28;20221;-78
2023/07/25 06:13:52;;;;;;;2.72;2.45;;;22.90;57.20;;;;;;4998727;28;20204;-78
2023/07/25 06:16:20;;;;;;;2.78;2.55;;;23.00;57.00;;;;;;4998941;28;20203;-77
2023/07/25 06:18:47;;;;;;;2.90;2.60;;;23.00;57.00;;;;;;4999119;28;20232;-77
2023/07/25 06:21:14;;;;;;;3.20;2.50;;;23.00;57.00;;;;;;4998927;28;20217;-77
2023/07/25 06:23:42;;;;;;;2.80;2.53;;;23.10;57.00;;;;;;5016362;28;20219;-77
2023/07/25 06:26:08;;;;;;;2.75;2.55;;;23.10;57.10;;;;;;4998571;28;20559;-77
2023/07/25 06:28:36;;;;;;;3.42;2.60;;;23.10;57.00;;;;;;4999009;28;20561;-77
2023/07/25 06:31:03;;;;;;;2.75;2.55;;;23.10;57.10;;;;;;4998675;28;20220;-77
2023/07/25 06:33:32;;;;;;;3.25;2.78;;;23.20;57.20;;;;;;4982928;28;20218;-78
2023/07/25 06:35:59;;;;;;;3.10;2.80;;;23.20;57.10;;;;;;4998332;28;20227;-77
2023/07/25 06:38:26;;;;;;;3.20;2.85;;;23.30;57.20;;;;;;4998802;28;20206;-77
2023/07/25 06:40:52;;;;;;;3.47;2.65;;;23.30;57.20;;;;;;4998004;28;20762;-77
2023/07/25 06:43:19;;;;;;;2.70;2.50;;;23.30;57.20;;;;;;4998419;28;20201;-77
2023/07/25 06:45:47;;;;;;;2.92;2.53;;;23.30;57.30;;;;;;4998407;28;20207;-77
2023/07/25 06:48:13;;;;;;;3.00;2.70;;;23.30;57.20;;;;;;4999595;28;20197;-77
2023/07/25 06:50:41;;;;;;;3.08;2.78;;;23.30;57.20;;;;;;4999825;28;20220;-77
2023/07/25 06:53:08;;;;;;;3.15;2.80;;;23.30;57.20;;;;;;4998919;28;20651;-76
2023/07/25 06:55:36;;;;;;;3.67;3.17;;;23.30;57.20;;;;;;4998299;28;20228;-77
2023/07/25 06:58:03;;;;;;;4.32;3.17;;;23.30;57.30;;;;;;4998395;28;20714;-77
2023/07/25 07:00:30;;;;;;;3.95;2.85;;;23.30;57.40;;;;;;4997988;28;20806;-77
2023/07/25 07:02:57;;;;;;;3.03;2.70;;;23.30;57.40;;;;;;4998258;28;20224;-77
2023/07/25 07:05:24;;;;;;;3.40;2.85;;;23.30;57.60;;;;;;4998031;28;20251;-77
2023/07/25 07:07:53;;;;;;;3.42;2.83;;;23.20;57.50;;;;;;4997917;28;20236;-77
2023/07/25 07:10:19;;;;;;;4.65;2.95;;;23.20;57.60;;;;;;5015669;28;20208;-77
2023/07/25 07:12:47;;;;;;;3.17;2.85;;;23.20;57.80;;;;;;4997722;28;20663;-77
2023/07/25 07:15:15;;;;;;;3.83;2.50;;;23.20;57.90;;;;;;4998154;28;20220;-77
2023/07/25 07:17:42;;;;;;;3.90;2.88;;;23.20;58.00;;;;;;4997741;28;20201;-77
2023/07/25 07:20:09;;;;;;;3.38;2.50;;;23.20;58.00;;;;;;4998077;28;20225;-78
2023/07/25 07:22:36;;;;;;;3.20;2.78;;;23.20;58.10;;;;;;4997985;28;20209;-78
2023/07/25 07:25:05;;;;;;;3.00;2.70;;;23.20;58.10;;;;;;5015308;28;20235;-78
2023/07/25 07:27:32;;;;;;;2.92;2.63;;;23.20;58.20;;;;;;4997623;28;20188;-77
2023/07/25 07:29:59;;;;;;;3.38;2.47;;;23.20;58.30;;;;;;4997635;28;20287;-77
2023/07/25 07:32:26;;;;;;;3.38;3.00;;;23.10;58.20;;;;;;4997508;28;20192;-77
2023/07/25 07:34:54;;;;;;;2.53;2.33;;;23.20;58.30;;;;;;4997448;28;20217;-77
2023/07/25 07:37:20;;;;;;;4.28;2.65;;;23.20;57.90;;;;;;4997524;28;20656;-78
2023/07/25 07:39:47;;;;;;;2.95;2.65;;;23.20;58.50;;;;;;4998017;28;20204;-78
2023/07/25 07:42:16;;;;;;;5.18;3.17;;;23.10;59.00;;;;;;4997675;28;20201;-78
2023/07/25 07:44:43;;;;;;;3.95;3.05;;;23.10;60.10;;;;;;4997723;28;20193;-79
2023/07/25 07:47:09;;;;;;;4.25;3.50;;;23.10;60.00;;;;;;4997856;28;20196;-79
2023/07/25 07:49:37;;;;;;;4.63;3.20;;;23.10;61.70;;;;;;4997962;28;20251;-78
2023/07/25 07:52:04;;;;;;;4.22;3.40;;;23.10;62.90;;;;;;4997451;28;20270;-79
2023/07/25 07:54:32;;;;;;;5.05;3.15;;;23.00;63.60;;;;;;4997485;28;20196;-79
2023/07/25 07:56:59;;;;;;;4.38;3.55;;;23.00;64.00;;;;;;4981614;28;20193;-79
2023/07/25 07:59:28;;;;;;;4.88;3.58;;;22.90;64.60;;;;;;4981494;28;20216;-79
2023/07/25 08:01:55;;;;;;;6.15;3.90;;;23.00;64.70;;;;;;4997721;28;20239;-79
2023/07/25 08:04:22;;;;;;;3.63;3.25;;;23.10;64.50;;;;;;5015086;28;20192;-79
2023/07/25 08:06:49;;;;;;;4.50;3.60;;;23.30;64.00;;;;;;4981112;28;20197;-79
2023/07/25 08:09:16;;;;;;;3.97;3.55;;;23.50;64.00;;;;;;4997402;28;20196;-79
2023/07/25 08:11:43;;;;;;;6.50;4.18;;;23.50;64.00;;;;;;4996707;28;20220;-79
2023/07/25 08:14:10;;;;;;;5.70;3.72;;;23.40;64.30;;;;;;4997066;28;20201;-79
2023/07/25 08:16:38;;;;;;;4.25;3.38;;;23.40;65.20;;;;;;4997703;28;20274;-79
2023/07/25 08:19:05;;;;;;;5.60;3.28;;;23.30;63.40;;;;;;5014587;28;20193;-79
2023/07/25 08:21:32;;;;;;;5.40;3.10;;;23.40;63.80;;;;;;4996758;28;20703;-79
2023/07/25 08:23:59;;;;;;;5.03;2.90;;;23.30;64.90;;;;;;4980619;28;20204;-79
2023/07/25 08:26:26;;;;;;;2.83;2.63;;;23.30;63.20;;;;;;4997007;28;20201;-79
2023/07/25 08:28:54;;;;;;;4.43;3.00;;;23.30;63.70;;;;;;4996795;28;20201;-79
2023/07/25 08:31:21;;;;;;;3.60;2.70;;;23.50;64.60;;;;;;4996465;28;20232;-79
2023/07/25 08:33:49;;;;;;;5.28;2.83;;;23.70;64.60;;;;;;4997043;28;20212;-79
2023/07/25 08:36:16;;;;;;;2.80;2.55;;;23.90;61.70;;;;;;4996634;28;20212;-79
2023/07/25 08:38:43;;;;;;;4.10;2.50;;;23.90;61.70;;;;;;4997129;28;20201;-78
2023/07/25 08:41:11;;;;;;;3.92;2.55;;;23.90;61.40;;;;;;4996747;28;20217;-79
2023/07/25 08:43:39;;;;;;;3.17;2.80;;;23.80;62.00;;;;;;4997057;28;20247;-79
2023/07/25 08:46:07;;;;;;;3.88;2.75;;;23.80;62.20;;;;;;4996678;28;20193;-77
2023/07/25 08:48:35;;;;;;;4.18;2.67;;;23.80;63.40;;;;;;4996461;28;20197;-78
2023/07/25 08:51:04;;;;;;;2.97;2.70;;;23.70;62.50;;;;;;4996454;28;20220;-77
2023/07/25 08:53:31;;;;;;;4.00;2.63;;;23.70;63.10;;;;;;4996562;28;20200;-78
2023/07/25 08:55:58;;;;;;;2.50;2.30;;;23.80;64.20;;;;;;4996272;28;20248;-78
2023/07/25 08:58:25;;;;;;;2.90;2.30;;;23.80;62.90;;;;;;4996671;28;20595;-78
2023/07/25 09:00:53;;;;;;;2.65;2.10;;;23.80;60.50;;;;;;4996718;28;20221;-77
2023/07/25 09:03:20;;;;;;;3.05;2.33;;;23.90;60.00;;;;;;4997997;28;20291;-78
2023/07/25 09:05:48;;;;;;;2.88;2.30;;;23.90;60.00;;;;;;5000469;28;20254;-77
2023/07/25 09:08:16;;;;;;;2.58;2.13;;;24.00;59.30;;;;;;5000322;28;20236;-78
2023/07/25 09:10:44;;;;;;;2.20;2.00;;;24.00;59.50;;;;;;5000691;28;20221;-78
2023/07/25 09:13:11;;;;;;;2.50;2.30;;;24.00;60.20;;;;;;4984028;28;20196;-78
2023/07/25 09:15:39;;;;;;;3.13;2.22;;;24.00;59.90;;;;;;5000907;28;20221;-77
2023/07/25 09:18:06;;;;;;;2.80;2.15;;;24.00;58.80;;;;;;5000838;28;20324;-79
2023/07/25 09:20:33;;;;;;;2.30;2.10;;;23.90;59.80;;;;;;5000274;28;20217;-79
2023/07/25 09:23:02;;;;;;;2.05;1.90;;;23.90;58.90;;;;;;5001199;28;20219;-79
2023/07/25 09:25:30;;;;;;;1.98;1.80;;;24.00;59.80;;;;;;4984561;28;20189;-80
2023/07/25 09:27:57;;;;;;;2.78;1.70;;;24.00;60.20;;;;;;5001036;28;20196;-80
2023/07/25 09:30:27;;;;;;;2.45;1.88;;;23.90;58.10;;;;;;4984723;28;20222;-79
2023/07/25 09:32:54;;;;;;;1.70;1.60;;;23.80;58.50;;;;;;5000597;28;20562;-80
2023/07/25 09:35:23;;;;;;;2.13;1.60;;;23.60;59.70;;;;;;5001909;28;20220;-80
2023/07/25 09:37:53;;;;;;;3.60;1.40;;;23.70;60.00;;;;;;5005376;28;20208;-80
2023/07/25 09:40:20;;;;;;;1.83;1.63;;;23.80;59.30;;;;;;5021763;28;20209;-80
2023/07/25 09:42:51;;;;;;;2.50;1.60;;;24.00;57.30;;;;;;4995345;28;20251;-79
2023/07/25 09:45:18;;;;;;;2.85;1.80;;;24.10;57.20;;;;;;5000688;28;20197;-79
2023/07/25 09:47:45;;;;;;;1.55;1.40;;;24.10;56.60;;;;;;4985483;28;20284;-79
2023/07/25 09:50:12;;;;;;;3.47;1.70;;;24.00;57.20;;;;;;5000690;28;20311;-79
2023/07/25 09:52:40;;;;;;;1.95;1.67;;;24.10;57.60;;;;;;5001818;28;20201;-79
2023/07/25 09:55:08;;;;;;;3.05;1.88;;;24.20;56.90;;;;;;5001811;28;20232;-80
2023/07/25 09:57:35;;;;;;;3.17;1.55;;;24.30;57.10;;;;;;5001297;28;20201;-80
2023/07/25 10:00:05;;;;;;;2.53;1.70;;;24.40;56.20;;;;;;4999787;28;20243;-80
2023/07/25 10:02:32;;;;;;;1.77;1.50;;;24.50;55.70;;;;;;5001233;28;20224;-80
2023/07/25 10:04:59;;;;;;;2.00;1.80;;;24.60;55.70;;;;;;5000194;28;20689;-80
2023/07/25 10:07:26;;;;;;;2.35;1.70;;;24.70;55.80;;;;;;5000593;28;20263;-79
2023/07/25 10:09:53;;;;;;;2.33;1.75;;;24.80;55.60;;;;;;5000353;28;20201;-80
2023/07/25 10:12:20;;;;;;;2.33;1.85;;;24.80;55.30;;;;;;5000617;28;20544;-79
2023/07/25 10:14:47;;;;;;;2.42;1.50;;;24.90;55.50;;;;;;5000085;28;20607;-78
2023/07/25 10:17:15;;;;;;;2.85;1.67;;;24.90;55.50;;;;;;5001494;28;20217;-78
2023/07/25 10:19:51;;;;;;;1.92;1.73;;;25.00;55.50;;;;;;5000448;28;20204;-78
2023/07/25 10:22:30;;;;;;;1.60;1.50;;;25.10;55.30;;;;;;5000349;28;20212;-78
2023/07/25 10:24:58;;;;;;;5.30;1.70;;;25.10;55.40;;;;;;4999720;28;20287;-78
2023/07/25 10:27:25;;;;;;;1.98;1.77;;;25.20;54.90;;;;;;4999443;28;20602;-78
2023/07/25 10:29:52;;;;;;;2.70;1.67;;;25.30;54.70;;;;;;4999328;28;20200;-78
2023/07/25 10:32:22;;;;;;;2.30;1.65;;;25.30;54.40;;;;;;5000058;28;20209;-78
2023/07/25 10:34:51;;;;;;;2.38;1.60;;;25.30;54.30;;;;;;4999579;28;20193;-79
2023/07/25 10:37:22;;;;;;;2.35;1.70;;;25.40;54.30;;;;;;4999405;28;20229;-78
2023/07/25 10:40:03;;;;;;;2.30;1.90;;;25.40;54.00;;;;;;4999218;28;20203;-78
2023/07/25 10:42:41;;;;;;;1.83;1.60;;;25.60;53.70;;;;;;4999173;28;20574;-78
2023/07/25 10:45:08;;;;;;;3.30;1.50;;;25.60;53.70;;;;;;4998925;28;20188;-79
2023/07/25 10:47:44;;;;;;;2.92;1.60;;;25.60;53.70;;;;;;4998868;28;20200;-79
2023/07/25 10:50:11;;;;;;;2.47;1.60;;;25.60;53.80;;;;;;4998598;28;20227;-79
2023/07/25 10:52:44;;;;;;;2.00;1.70;;;25.60;53.70;;;;;;4998842;28;20243;-79
2023/07/25 10:55:11;;;;;;;1.80;1.55;;;25.60;53.80;;;;;;4998709;28;20193;-79
2023/07/25 10:57:38;;;;;;;2.83;1.90;;;25.70;53.70;;;;;;4999412;28;20618;-79
2023/07/25 11:00:08;;;;;;;3.92;1.60;;;25.70;53.60;;;;;;4998713;28;20680;-79
2023/07/25 11:02:35;;;;;;;1.50;1.40;;;25.60;53.50;;;;;;4998749;28;20201;-78
2023/07/25 11:05:23;;;;;;;1.92;1.70;;;25.60;53.40;;;;;;4998745;28;20287;-78
2023/07/25 11:07:52;;;;;;;2.38;1.67;;;25.60;53.40;;;;;;4998999;28;20280;-78
2023/07/25 11:10:20;;;;;;;2.85;1.52;;;25.60;53.40;;;;;;4982706;28;20316;-78
2023/07/25 11:12:53;;;;;;;2.08;1.55;;;25.60;53.50;;;;;;4999275;28;20204;-78
2023/07/25 11:15:20;;;;;;;3.03;1.63;;;25.60;53.50;;;;;;4999711;28;20278;-78
2023/07/25 11:17:47;;;;;;;3.10;1.60;;;25.50;53.40;;;;;;4998916;28;20196;-78
2023/07/25 11:20:15;;;;;;;1.73;1.63;;;25.50;53.50;;;;;;4998839;28;20221;-78
2023/07/25 11:22:45;;;;;;;1.52;1.40;;;25.50;53.40;;;;;;4998856;28;20238;-78
2023/07/25 11:25:12;;;;;;;1.92;1.40;;;25.60;53.40;;;;;;4999447;28;20192;-78
2023/07/25 11:27:42;;;;;;;1.50;1.40;;;25.60;53.40;;;;;;4998788;28;20288;-78
2023/07/25 11:30:14;;;;;;;2.38;1.40;;;25.60;53.30;;;;;;4998648;28;20220;-78
2023/07/25 11:32:46;;;;;;;1.52;1.27;;;25.70;53.20;;;;;;4998122;28;20230;-78
2023/07/25 11:35:13;;;;;;;1.63;1.45;;;25.70;53.20;;;;;;4998945;28;20196;-78
2023/07/25 11:37:41;;;;;;;1.58;1.40;;;25.80;53.00;;;;;;4999302;28;20270;-78
2023/07/25 11:40:27;;;;;;;2.42;1.40;;;25.80;53.00;;;;;;4998574;28;20587;-78
2023/07/25 11:42:54;;;;;;;1.60;1.50;;;25.80;52.90;;;;;;4997877;28;20181;-78
2023/07/25 11:45:22;;;;;;;1.85;1.45;;;25.90;52.90;;;;;;4981995;28;20268;-78
2023/07/25 11:47:57;;;;;;;1.65;1.55;;;25.80;52.90;;;;;;5091879;27;20609;-52
2023/07/25 11:50:24;;;;;;;1.80;1.30;;;25.90;52.90;;;;;;5091317;28;20260;-52
2023/07/25 11:52:51;;;;;;;2.92;1.40;;;25.80;52.80;;;;;;5089996;28;20569;-52
2023/07/25 11:55:19;;;;;;;2.15;1.50;;;25.90;52.80;;;;;;5089670;28;20621;-52
2023/07/25 11:57:45;;;;;;;1.50;1.40;;;25.80;52.70;;;;;;5090973;28;20209;-52
2023/07/25 12:00:15;;;;;;;1.60;1.50;;;25.90;52.80;;;;;;5076562;22;20231;-77
2023/07/25 12:02:42;;;;;;;3.63;1.80;;;25.80;52.70;;;;;;5050388;28;20642;-77
2023/07/25 12:05:25;;;;;;;1.55;1.45;;;25.80;52.60;;;;;;5050072;28;20298;-77
2023/07/25 12:07:52;;;;;;;1.35;1.25;;;25.80;52.60;;;;;;5051199;28;20294;-77
2023/07/25 12:10:27;;;;;;;1.50;1.40;;;25.90;52.60;;;;;;5033414;28;20221;-77
2023/07/25 12:12:55;;;;;;;1.60;1.50;;;25.80;52.50;;;;;;5049594;28;20293;-77
2023/07/25 12:15:22;;;;;;;1.50;1.40;;;25.80;52.50;;;;;;5050704;28;20582;-77
2023/07/25 12:17:49;;;;;;;1.58;1.48;;;25.90;52.50;;;;;;5050320;28;20198;-77
2023/07/25 12:20:19;;;;;;;1.70;1.38;;;25.90;52.50;;;;;;5050794;28;20298;-77
2023/07/25 12:22:47;;;;;;;1.95;1.42;;;25.80;53.00;;;;;;5050151;28;20234;-77
2023/07/25 12:25:18;;;;;;;1.50;1.40;;;25.80;52.40;;;;;;5049353;28;20269;-77
2023/07/25 12:27:45;;;;;;;1.55;1.42;;;25.70;52.40;;;;;;5049575;28;20243;-77
2023/07/25 12:30:12;;;;;;;1.35;1.25;;;25.70;52.50;;;;;;5050280;28;20226;-77
2023/07/25 12:32:42;;;;;;;1.50;1.40;;;25.70;52.50;;;;;;5049735;28;20724;-77
2023/07/25 12:35:10;;;;;;;1.50;1.30;;;25.70;52.60;;;;;;5050199;28;20226;-77
2023/07/25 12:37:38;;;;;;;1.60;1.25;;;25.60;52.60;;;;;;5049225;28;20245;-77
2023/07/25 12:40:07;;;;;;;1.65;1.33;;;25.60;52.70;;;;;;5049059;28;20245;-77
2023/07/25 12:42:35;;;;;;;1.27;1.15;;;25.60;52.50;;;;;;5050129;28;20184;-77
2023/07/25 12:45:05;;;;;;;1.20;1.10;;;25.70;52.50;;;;;;5048794;28;20221;-77
2023/07/25 12:47:34;;;;;;;1.50;1.40;;;25.60;52.40;;;;;;5048769;28;20238;-77
2023/07/25 12:50:01;;;;;;;1.45;1.30;;;25.70;52.50;;;;;;5048622;28;20230;-77